sensor_id;sensor_type;location;lat;lon;timestamp;temperature;humidity
15815;DHT22;8008;50.024;8.172;2023-02-04T04:02:38;8.70;99.90
15815;DHT22;8008;50.024;8.172;2023-02-04T04:05:10;8.60;99.90
15815;DHT22;8008;50.024;8.172;2023-02-04T04:07:38;8.50;99.90
15815;DHT22;8008;50.024;8.172;2023-02-04T04:10:07;8.50;99.90
15815;DHT22;8008;50.024;8.172;2023-02-04T04:12:36;8.60;99.90
15815;DHT22;8008;50.024;8.172;2023-02-04T04:15:04;8.50;99.90
15815;DHT22;8008;50.024;8.172;2023-02-04T04:17:40;8.50;99.90
15815;DHT22;8008;50.024;8.172;2023-02-04T04:20:09;8.50;99.90
15815;DHT22;8008;50.024;8.172;2023-02-04T04:22:37;8.60;99.90
15815;DHT22;8008;50.024;8.172;2023-02-04T04:25:06;8.50;99.90
15815;DHT22;8008;50.024;8.172;2023-02-04T04:27:34;8.50;99.90
15815;DHT22;8008;50.024;8.172;2023-02-04T04:30:03;8.50;99.90
15815;DHT22;8008;50.024;8.172;2023-02-04T04:32:30;8.50;99.90
15815;DHT22;8008;50.024;8.172;2023-02-04T04:35:00;8.50;99.90
15815;DHT22;8008;50.024;8.172;2023-02-04T04:37:28;8.60;99.90
15815;DHT22;8008;50.024;8.172;2023-02-04T04:39:55;8.60;99.90
15815;DHT22;8008;50.024;8.172;2023-02-04T04:42:23;8.60;99.90
15815;DHT22;8008;50.024;8.172;2023-02-04T04:44:51;8.60;99.90
15815;DHT22;8008;50.024;8.172;2023-02-04T04:47:19;8.60;99.90
15815;DHT22;8008;50.024;8.172;2023-02-04T04:49:47;8.60;99.90
15815;DHT22;8008;50.024;8.172;2023-02-04T04:52:16;8.50;99.90
15815;DHT22;8008;50.024;8.172;2023-02-04T04:54:44;8.50;99.90
15815;DHT22;8008;50.024;8.172;2023-02-04T04:57:12;8.40;99.90
15815;DHT22;8008;50.024;8.172;2023-02-04T04:59:40;8.40;99.90
15815;DHT22;8008;50.024;8.172;2023-02-04T05:02:08;8.40;99.90
15815;DHT22;8008;50.024;8.172;2023-02-04T05:04:35;8.40;99.90
15815;DHT22;8008;50.024;8.172;2023-02-04T05:07:03;8.40;99.90
15815;DHT22;8008;50.024;8.172;2023-02-04T05:09:33;8.40;99.90
15815;DHT22;8008;50.024;8.172;2023-02-04T05:12:00;8.40;99.90
15815;DHT22;8008;50.024;8.172;2023-02-04T05:14:28;8.50;99.90
15815;DHT22;8008;50.024;8.172;2023-02-04T05:16:56;8.40;99.90
15815;DHT22;8008;50.024;8.172;2023-02-04T05:19:24;8.40;99.90
15815;DHT22;8008;50.024;8.172;2023-02-04T05:21:52;8.40;99.90
15815;DHT22;8008;50.024;8.172;2023-02-04T05:24:20;8.40;99.90
15815;DHT22;8008;50.024;8.172;2023-02-04T05:26:49;8.40;99.90
15815;DHT22;8008;50.024;8.172;2023-02-04T05:29:17;8.40;99.90
15815;DHT22;8008;50.024;8.172;2023-02-04T05:31:44;8.40;99.90
15815;DHT22;8008;50.024;8.172;2023-02-04T05:34:12;8.40;99.90
15815;DHT22;8008;50.024;8.172;2023-02-04T05:36:40;8.40;99.90
15815;DHT22;8008;50.024;8.172;2023-02-04T05:39:08;8.40;99.90
15815;DHT22;8008;50.024;8.172;2023-02-04T05:41:36;8.30;99.90
15815;DHT22;8008;50.024;8.172;2023-02-04T05:44:06;8.30;99.90
15815;DHT22;8008;50.024;8.172;2023-02-04T05:46:34;8.30;99.90
15815;DHT22;8008;50.024;8.172;2023-02-04T05:49:02;8.30;99.90
15815;DHT22;8008;50.024;8.172;2023-02-04T05:51:30;8.30;99.90
15815;DHT22;8008;50.024;8.172;2023-02-04T05:53:58;8.30;99.90
15815;DHT22;8008;50.024;8.172;2023-02-04T05:56:25;8.30;99.90
15815;DHT22;8008;50.024;8.172;2023-02-04T05:58:54;8.30;99.90
15815;DHT22;8008;50.024;8.172;2023-02-04T06:01:23;8.30;99.90
15815;DHT22;8008;50.024;8.172;2023-02-04T06:03:51;8.30;99.90
15815;DHT22;8008;50.024;8.172;2023-02-04T06:06:18;8.20;99.90
15815;DHT22;8008;50.024;8.172;2023-02-04T06:08:46;8.20;99.90
15815;DHT22;8008;50.024;8.172;2023-02-04T06:11:15;8.20;99.90
15815;DHT22;8008;50.024;8.172;2023-02-04T06:13:43;8.20;99.90
15815;DHT22;8008;50.024;8.172;2023-02-04T06:16:11;8.30;99.90
15815;DHT22;8008;50.024;8.172;2023-02-04T06:18:41;8.30;99.90
15815;DHT22;8008;50.024;8.172;2023-02-04T06:21:09;8.30;99.90
15815;DHT22;8008;50.024;8.172;2023-02-04T06:23:37;8.30;99.90
15815;DHT22;8008;50.024;8.172;2023-02-04T06:26:05;8.30;99.90
15815;DHT22;8008;50.024;8.172;2023-02-04T06:28:33;8.30;99.90
15815;DHT22;8008;50.024;8.172;2023-02-04T06:31:01;8.20;99.90
15815;DHT22;8008;50.024;8.172;2023-02-04T06:33:29;8.10;99.90
15815;DHT22;8008;50.024;8.172;2023-02-04T06:35:58;8.10;99.90
15815;DHT22;8008;50.024;8.172;2023-02-04T06:38:26;8.10;99.90
15815;DHT22;8008;50.024;8.172;2023-02-04T06:40:54;8.10;99.90
15815;DHT22;8008;50.024;8.172;2023-02-04T06:43:22;8.10;99.90
15815;DHT22;8008;50.024;8.172;2023-02-04T06:45:51;8.10;99.90
15815;DHT22;8008;50.024;8.172;2023-02-04T06:48:19;8.00;99.90
15815;DHT22;8008;50.024;8.172;2023-02-04T06:50:47;8.10;99.90
15815;DHT22;8008;50.024;8.172;2023-02-04T06:53:16;8.10;99.90
15815;DHT22;8008;50.024;8.172;2023-02-04T06:55:44;8.10;99.90
15815;DHT22;8008;50.024;8.172;2023-02-04T06:58:12;8.10;99.90
15815;DHT22;8008;50.024;8.172;2023-02-04T07:00:40;8.20;99.90
15815;DHT22;8008;50.024;8.172;2023-02-04T07:03:07;8.10;99.90
15815;DHT22;8008;50.024;8.172;2023-02-04T07:05:35;8.10;99.90
15815;DHT22;8008;50.024;8.172;2023-02-04T07:08:04;8.10;99.90
15815;DHT22;8008;50.024;8.172;2023-02-04T07:10:33;8.00;99.90
15815;DHT22;8008;50.024;8.172;2023-02-04T07:13:01;8.10;99.90
15815;DHT22;8008;50.024;8.172;2023-02-04T07:15:29;8.00;99.90
15815;DHT22;8008;50.024;8.172;2023-02-04T07:17:57;8.00;99.90
15815;DHT22;8008;50.024;8.172;2023-02-04T07:20:25;8.10;99.90
15815;DHT22;8008;50.024;8.172;2023-02-04T07:22:53;8.20;99.90
15815;DHT22;8008;50.024;8.172;2023-02-04T07:25:21;8.10;99.90
15815;DHT22;8008;50.024;8.172;2023-02-04T07:27:50;8.10;99.90
15815;DHT22;8008;50.024;8.172;2023-02-04T07:30:18;8.10;99.90
15815;DHT22;8008;50.024;8.172;2023-02-04T07:32:46;8.10;99.90
15815;DHT22;8008;50.024;8.172;2023-02-04T07:35:14;8.00;99.90
15815;DHT22;8008;50.024;8.172;2023-02-04T07:37:43;8.10;99.90
15815;DHT22;8008;50.024;8.172;2023-02-04T07:40:11;8.10;99.90
15815;DHT22;8008;50.024;8.172;2023-02-04T07:42:39;8.10;99.90
15815;DHT22;8008;50.024;8.172;2023-02-04T07:45:13;8.20;99.90
15815;DHT22;8008;50.024;8.172;2023-02-04T07:47:41;8.30;99.90
15815;DHT22;8008;50.024;8.172;2023-02-04T07:50:09;8.20;99.90
15815;DHT22;8008;50.024;8.172;2023-02-04T07:52:38;8.20;99.90
15815;DHT22;8008;50.024;8.172;2023-02-04T07:55:06;8.20;99.90
15815;DHT22;8008;50.024;8.172;2023-02-04T07:57:34;8.20;99.90
15815;DHT22;8008;50.024;8.172;2023-02-04T08:00:03;8.40;99.90
15815;DHT22;8008;50.024;8.172;2023-02-04T08:02:39;8.40;99.90
15815;DHT22;8008;50.024;8.172;2023-02-04T08:05:08;8.30;99.90
15815;DHT22;8008;50.024;8.172;2023-02-04T08:07:36;8.30;99.90
15815;DHT22;8008;50.024;8.172;2023-02-04T08:10:05;8.40;99.90
15815;DHT22;8008;50.024;8.172;2023-02-04T08:12:34;8.40;99.90
15815;DHT22;8008;50.024;8.172;2023-02-04T08:15:02;8.40;99.90
15815;DHT22;8008;50.024;8.172;2023-02-04T08:17:30;8.40;99.90
15815;DHT22;8008;50.024;8.172;2023-02-04T08:19:59;8.50;99.90
15815;DHT22;8008;50.024;8.172;2023-02-04T08:22:27;8.50;99.90
15815;DHT22;8008;50.024;8.172;2023-02-04T08:24:55;8.50;99.90
15815;DHT22;8008;50.024;8.172;2023-02-04T08:27:22;8.60;99.90
15815;DHT22;8008;50.024;8.172;2023-02-04T08:29:50;8.60;99.90
15815;DHT22;8008;50.024;8.172;2023-02-04T08:32:18;8.70;99.90
15815;DHT22;8008;50.024;8.172;2023-02-04T08:34:46;8.70;99.90
15815;DHT22;8008;50.024;8.172;2023-02-04T08:37:15;8.70;99.90
15815;DHT22;8008;50.024;8.172;2023-02-04T08:39:44;8.80;99.90
15815;DHT22;8008;50.024;8.172;2023-02-04T08:42:13;8.80;99.90
15815;DHT22;8008;50.024;8.172;2023-02-04T08:44:41;8.90;99.90
15815;DHT22;8008;50.024;8.172;2023-02-04T08:47:09;8.90;99.90
15815;DHT22;8008;50.024;8.172;2023-02-04T08:49:37;9.00;99.90
15815;DHT22;8008;50.024;8.172;2023-02-04T08:52:05;9.00;99.90
15815;DHT22;8008;50.024;8.172;2023-02-04T08:54:35;9.00;99.90
15815;DHT22;8008;50.024;8.172;2023-02-04T08:57:04;9.00;99.90
15815;DHT22;8008;50.024;8.172;2023-02-04T08:59:32;9.00;99.90
15815;DHT22;8008;50.024;8.172;2023-02-04T09:01:59;9.20;99.90
15815;DHT22;8008;50.024;8.172;2023-02-04T09:04:28;9.20;99.90
15815;DHT22;8008;50.024;8.172;2023-02-04T09:06:56;9.30;99.90
15815;DHT22;8008;50.024;8.172;2023-02-04T09:09:24;9.30;99.90
15815;DHT22;8008;50.024;8.172;2023-02-04T09:11:53;9.30;99.90
15815;DHT22;8008;50.024;8.172;2023-02-04T09:14:21;9.30;99.90
15815;DHT22;8008;50.024;8.172;2023-02-04T09:16:49;9.40;99.90
15815;DHT22;8008;50.024;8.172;2023-02-04T09:19:17;9.50;99.90
15815;DHT22;8008;50.024;8.172;2023-02-04T09:21:50;9.60;99.90
15815;DHT22;8008;50.024;8.172;2023-02-04T09:24:18;9.70;99.90
15815;DHT22;8008;50.024;8.172;2023-02-04T09:26:49;9.70;99.90
15815;DHT22;8008;50.024;8.172;2023-02-04T09:29:18;9.70;99.90
15815;DHT22;8008;50.024;8.172;2023-02-04T09:31:46;9.60;99.90
15815;DHT22;8008;50.024;8.172;2023-02-04T09:34:14;9.70;99.90
15815;DHT22;8008;50.024;8.172;2023-02-04T09:36:42;9.70;99.90
15815;DHT22;8008;50.024;8.172;2023-02-04T09:39:10;9.70;99.90
15815;DHT22;8008;50.024;8.172;2023-02-04T09:41:38;9.80;99.90
15815;DHT22;8008;50.024;8.172;2023-02-04T09:44:13;9.80;99.90
15815;DHT22;8008;50.024;8.172;2023-02-04T09:46:47;9.90;99.90
15815;DHT22;8008;50.024;8.172;2023-02-04T09:49:16;10.00;99.90
15815;DHT22;8008;50.024;8.172;2023-02-04T09:51:45;10.10;99.90
15815;DHT22;8008;50.024;8.172;2023-02-04T09:54:16;10.10;99.90
15815;DHT22;8008;50.024;8.172;2023-02-04T09:56:45;10.10;99.90
15815;DHT22;8008;50.024;8.172;2023-02-04T09:59:14;10.10;99.90
15815;DHT22;8008;50.024;8.172;2023-02-04T10:01:44;10.00;99.90
15815;DHT22;8008;50.024;8.172;2023-02-04T10:04:13;10.00;99.90
15815;DHT22;8008;50.024;8.172;2023-02-04T10:06:42;10.00;99.90
15815;DHT22;8008;50.024;8.172;2023-02-04T10:09:13;10.10;99.90
15815;DHT22;8008;50.024;8.172;2023-02-04T10:11:44;10.10;99.90
15815;DHT22;8008;50.024;8.172;2023-02-04T10:14:17;10.10;99.90
15815;DHT22;8008;50.024;8.172;2023-02-04T10:16:51;10.10;99.90
15815;DHT22;8008;50.024;8.172;2023-02-04T10:19:20;10.10;99.90
15815;DHT22;8008;50.024;8.172;2023-02-04T10:21:48;10.30;99.90
15815;DHT22;8008;50.024;8.172;2023-02-04T10:24:18;10.30;99.90
15815;DHT22;8008;50.024;8.172;2023-02-04T10:26:46;10.40;99.90
15815;DHT22;8008;50.024;8.172;2023-02-04T10:29:16;10.30;99.90
15815;DHT22;8008;50.024;8.172;2023-02-04T10:31:49;10.20;99.90
15815;DHT22;8008;50.024;8.172;2023-02-04T10:34:18;10.20;99.90
15815;DHT22;8008;50.024;8.172;2023-02-04T10:36:48;10.30;99.90
15815;DHT22;8008;50.024;8.172;2023-02-04T10:39:18;10.30;99.90
15815;DHT22;8008;50.024;8.172;2023-02-04T10:41:48;10.40;99.90
15815;DHT22;8008;50.024;8.172;2023-02-04T10:44:18;10.40;99.90
15815;DHT22;8008;50.024;8.172;2023-02-04T10:46:48;10.40;99.90
15815;DHT22;8008;50.024;8.172;2023-02-04T10:49:18;10.50;99.90
15815;DHT22;8008;50.024;8.172;2023-02-04T10:51:47;10.50;99.90
15815;DHT22;8008;50.024;8.172;2023-02-04T10:54:16;10.60;99.90
15815;DHT22;8008;50.024;8.172;2023-02-04T10:56:59;10.40;99.90
15815;DHT22;8008;50.024;8.172;2023-02-04T10:59:31;10.60;99.90
15815;DHT22;8008;50.024;8.172;2023-02-04T11:02:05;10.50;99.90
15815;DHT22;8008;50.024;8.172;2023-02-04T11:04:39;10.40;99.90
15815;DHT22;8008;50.024;8.172;2023-02-04T11:07:10;10.60;99.90
15815;DHT22;8008;50.024;8.172;2023-02-04T11:09:40;10.70;99.90
15815;DHT22;8008;50.024;8.172;2023-02-04T11:12:19;10.60;99.90
15815;DHT22;8008;50.024;8.172;2023-02-04T11:14:55;10.50;99.90
15815;DHT22;8008;50.024;8.172;2023-02-04T11:17:29;10.50;99.90
15815;DHT22;8008;50.024;8.172;2023-02-04T11:19:58;10.40;99.90
15815;DHT22;8008;50.024;8.172;2023-02-04T11:22:39;10.30;99.90
15815;DHT22;8008;50.024;8.172;2023-02-04T11:25:32;10.10;99.90
15815;DHT22;8008;50.024;8.172;2023-02-04T11:28:12;10.00;99.90
15815;DHT22;8008;50.024;8.172;2023-02-04T11:30:40;10.00;99.90
15815;DHT22;8008;50.024;8.172;2023-02-04T11:33:22;10.10;99.90
15815;DHT22;8008;50.024;8.172;2023-02-04T11:35:59;10.10;99.90
15815;DHT22;8008;50.024;8.172;2023-02-04T11:38:30;10.00;99.90
15815;DHT22;8008;50.024;8.172;2023-02-04T11:40:59;9.80;99.90
15815;DHT22;8008;50.024;8.172;2023-02-04T11:43:27;9.90;99.90
15815;DHT22;8008;50.024;8.172;2023-02-04T11:46:02;9.90;99.90
15815;DHT22;8008;50.024;8.172;2023-02-04T11:48:35;9.90;99.90
15815;DHT22;8008;50.024;8.172;2023-02-04T11:51:11;10.00;99.90
15815;DHT22;8008;50.024;8.172;2023-02-04T11:53:39;10.10;99.90
15815;DHT22;8008;50.024;8.172;2023-02-04T11:56:15;10.20;99.90
15815;DHT22;8008;50.024;8.172;2023-02-04T11:58:44;10.30;99.90
15815;DHT22;8008;50.024;8.172;2023-02-04T12:01:19;10.30;99.90
15815;DHT22;8008;50.024;8.172;2023-02-04T12:03:56;10.30;99.90
15815;DHT22;8008;50.024;8.172;2023-02-04T12:06:26;10.30;99.90
15815;DHT22;8008;50.024;8.172;2023-02-04T12:09:04;10.30;99.90
15815;DHT22;8008;50.024;8.172;2023-02-04T12:11:34;10.30;99.90
15815;DHT22;8008;50.024;8.172;2023-02-04T12:14:07;10.30;99.90
15815;DHT22;8008;50.024;8.172;2023-02-04T12:16:43;10.20;99.90
15815;DHT22;8008;50.024;8.172;2023-02-04T12:19:13;10.20;99.90
15815;DHT22;8008;50.024;8.172;2023-02-04T12:21:41;10.10;99.90
15815;DHT22;8008;50.024;8.172;2023-02-04T12:24:09;10.00;99.90
15815;DHT22;8008;50.024;8.172;2023-02-04T12:26:37;10.10;99.90
15815;DHT22;8008;50.024;8.172;2023-02-04T12:29:05;10.00;99.90
15815;DHT22;8008;50.024;8.172;2023-02-04T12:31:33;10.00;99.90
15815;DHT22;8008;50.024;8.172;2023-02-04T12:34:01;10.00;99.90
15815;DHT22;8008;50.024;8.172;2023-02-04T12:36:30;10.00;99.90
15815;DHT22;8008;50.024;8.172;2023-02-04T12:38:58;10.10;99.90
15815;DHT22;8008;50.024;8.172;2023-02-04T12:41:26;10.10;99.90
15815;DHT22;8008;50.024;8.172;2023-02-04T12:43:54;10.10;99.90
15815;DHT22;8008;50.024;8.172;2023-02-04T12:46:22;10.20;99.90
15815;DHT22;8008;50.024;8.172;2023-02-04T12:48:51;10.20;99.90
15815;DHT22;8008;50.024;8.172;2023-02-04T12:51:19;10.20;99.90
15815;DHT22;8008;50.024;8.172;2023-02-04T12:53:48;10.10;99.90
15815;DHT22;8008;50.024;8.172;2023-02-04T12:56:17;10.20;99.90
15815;DHT22;8008;50.024;8.172;2023-02-04T12:58:49;10.30;99.90
15815;DHT22;8008;50.024;8.172;2023-02-04T13:01:16;10.40;99.90
15815;DHT22;8008;50.024;8.172;2023-02-04T13:03:44;10.60;99.90
15815;DHT22;8008;50.024;8.172;2023-02-04T13:06:13;10.40;99.90
15815;DHT22;8008;50.024;8.172;2023-02-04T13:08:41;10.30;99.90
15815;DHT22;8008;50.024;8.172;2023-02-04T13:11:11;10.40;99.90
15815;DHT22;8008;50.024;8.172;2023-02-04T13:13:38;10.50;99.90
15815;DHT22;8008;50.024;8.172;2023-02-04T13:16:06;10.60;99.90
15815;DHT22;8008;50.024;8.172;2023-02-04T13:18:34;10.80;99.90
15815;DHT22;8008;50.024;8.172;2023-02-04T13:21:03;10.90;99.90
15815;DHT22;8008;50.024;8.172;2023-02-04T13:23:31;10.90;99.90
15815;DHT22;8008;50.024;8.172;2023-02-04T13:25:58;11.00;99.90
15815;DHT22;8008;50.024;8.172;2023-02-04T13:28:28;11.00;99.90
15815;DHT22;8008;50.024;8.172;2023-02-04T13:30:56;10.90;99.90
15815;DHT22;8008;50.024;8.172;2023-02-04T13:33:23;10.90;99.90
15815;DHT22;8008;50.024;8.172;2023-02-04T13:35:51;10.80;99.90
15815;DHT22;8008;50.024;8.172;2023-02-04T13:38:19;10.90;99.90
15815;DHT22;8008;50.024;8.172;2023-02-04T13:40:47;10.90;99.90
15815;DHT22;8008;50.024;8.172;2023-02-04T13:43:15;10.90;99.90
15815;DHT22;8008;50.024;8.172;2023-02-04T13:45:44;11.00;99.90
15815;DHT22;8008;50.024;8.172;2023-02-04T13:48:15;11.10;99.90
15815;DHT22;8008;50.024;8.172;2023-02-04T13:50:44;11.20;99.90
15815;DHT22;8008;50.024;8.172;2023-02-04T13:53:12;11.20;99.90
15815;DHT22;8008;50.024;8.172;2023-02-04T13:55:41;11.00;99.90
15815;DHT22;8008;50.024;8.172;2023-02-04T13:58:09;11.00;99.90
15815;DHT22;8008;50.024;8.172;2023-02-04T14:00:36;11.10;99.90
15815;DHT22;8008;50.024;8.172;2023-02-04T14:03:06;11.20;99.90
15815;DHT22;8008;50.024;8.172;2023-02-04T14:05:34;11.20;99.90
15815;DHT22;8008;50.024;8.172;2023-02-04T14:08:05;11.20;99.90
15815;DHT22;8008;50.024;8.172;2023-02-04T14:10:33;11.20;99.90
15815;DHT22;8008;50.024;8.172;2023-02-04T14:13:04;11.20;99.90
15815;DHT22;8008;50.024;8.172;2023-02-04T14:15:32;11.20;99.90
15815;DHT22;8008;50.024;8.172;2023-02-04T14:18:03;11.20;99.90
15815;DHT22;8008;50.024;8.172;2023-02-04T14:20:33;11.20;99.90
15815;DHT22;8008;50.024;8.172;2023-02-04T14:23:02;11.20;99.90
15815;DHT22;8008;50.024;8.172;2023-02-04T14:25:30;11.20;99.90
15815;DHT22;8008;50.024;8.172;2023-02-04T14:27:58;11.20;99.90
15815;DHT22;8008;50.024;8.172;2023-02-04T14:30:27;11.00;99.00
15815;DHT22;8008;50.024;8.172;2023-02-04T14:32:56;11.00;99.70
15815;DHT22;8008;50.024;8.172;2023-02-04T14:35:25;11.00;99.40
15815;DHT22;8008;50.024;8.172;2023-02-04T14:37:54;11.00;99.60
15815;DHT22;8008;50.024;8.172;2023-02-04T14:40:22;11.00;99.80
15815;DHT22;8008;50.024;8.172;2023-02-04T14:42:50;11.00;99.70
15815;DHT22;8008;50.024;8.172;2023-02-04T14:45:18;11.00;98.60
15815;DHT22;8008;50.024;8.172;2023-02-04T14:47:46;10.80;98.60
15815;DHT22;8008;50.024;8.172;2023-02-04T14:50:15;10.60;98.60
15815;DHT22;8008;50.024;8.172;2023-02-04T14:52:43;10.50;99.90
15815;DHT22;8008;50.024;8.172;2023-02-04T14:55:12;10.60;99.90
15815;DHT22;8008;50.024;8.172;2023-02-04T14:57:40;10.70;99.90
15815;DHT22;8008;50.024;8.172;2023-02-04T15:00:09;10.70;99.90
15815;DHT22;8008;50.024;8.172;2023-02-04T15:02:37;10.70;99.90
15815;DHT22;8008;50.024;8.172;2023-02-04T15:05:07;10.70;99.80
15815;DHT22;8008;50.024;8.172;2023-02-04T15:07:36;10.70;99.90
15815;DHT22;8008;50.024;8.172;2023-02-04T15:10:05;10.70;99.90
15815;DHT22;8008;50.024;8.172;2023-02-04T15:12:35;10.60;99.00
15815;DHT22;8008;50.024;8.172;2023-02-04T15:15:04;10.40;99.30
15815;DHT22;8008;50.024;8.172;2023-02-04T15:17:32;10.40;99.60
15815;DHT22;8008;50.024;8.172;2023-02-04T15:20:00;10.30;99.90
15815;DHT22;8008;50.024;8.172;2023-02-04T15:22:29;10.40;99.80
15815;DHT22;8008;50.024;8.172;2023-02-04T15:24:57;10.30;99.30
15815;DHT22;8008;50.024;8.172;2023-02-04T15:27:25;10.20;99.20
15815;DHT22;8008;50.024;8.172;2023-02-04T15:29:54;10.20;99.70
15815;DHT22;8008;50.024;8.172;2023-02-04T15:32:22;10.30;99.70
15815;DHT22;8008;50.024;8.172;2023-02-04T15:34:51;10.40;99.90
15815;DHT22;8008;50.024;8.172;2023-02-04T15:37:19;10.40;99.70
15815;DHT22;8008;50.024;8.172;2023-02-04T15:39:48;10.40;99.20
15815;DHT22;8008;50.024;8.172;2023-02-04T15:42:15;10.20;99.90
15815;DHT22;8008;50.024;8.172;2023-02-04T15:44:43;10.30;99.90
15815;DHT22;8008;50.024;8.172;2023-02-04T15:47:13;10.30;99.90
15815;DHT22;8008;50.024;8.172;2023-02-04T15:49:40;10.30;99.90
15815;DHT22;8008;50.024;8.172;2023-02-04T15:52:08;10.30;99.90
15815;DHT22;8008;50.024;8.172;2023-02-04T15:54:49;10.30;99.90
15815;DHT22;8008;50.024;8.172;2023-02-04T15:57:17;10.20;99.90
15815;DHT22;8008;50.024;8.172;2023-02-04T15:59:45;10.10;99.90
15815;DHT22;8008;50.024;8.172;2023-02-04T16:02:14;10.10;99.90
15815;DHT22;8008;50.024;8.172;2023-02-04T16:04:42;10.10;99.90
15815;DHT22;8008;50.024;8.172;2023-02-04T16:07:12;10.00;99.90
15815;DHT22;8008;50.024;8.172;2023-02-04T16:09:40;10.00;99.90
15815;DHT22;8008;50.024;8.172;2023-02-04T16:12:09;9.90;99.90
15815;DHT22;8008;50.024;8.172;2023-02-04T16:14:39;9.90;99.90
15815;DHT22;8008;50.024;8.172;2023-02-04T16:17:07;9.90;99.90
15815;DHT22;8008;50.024;8.172;2023-02-04T16:22:15;9.80;99.90
15815;DHT22;8008;50.024;8.172;2023-02-04T16:24:43;9.70;99.90
15815;DHT22;8008;50.024;8.172;2023-02-04T16:27:11;9.70;99.90
15815;DHT22;8008;50.024;8.172;2023-02-04T16:29:39;9.70;99.90
15815;DHT22;8008;50.024;8.172;2023-02-04T16:32:07;9.60;99.90
15815;DHT22;8008;50.024;8.172;2023-02-04T16:34:34;9.60;99.90
15815;DHT22;8008;50.024;8.172;2023-02-04T16:37:02;9.60;99.90
15815;DHT22;8008;50.024;8.172;2023-02-04T16:39:31;9.50;99.90
15815;DHT22;8008;50.024;8.172;2023-02-04T16:41:59;9.60;99.90
15815;DHT22;8008;50.024;8.172;2023-02-04T16:44:27;9.50;99.90
15815;DHT22;8008;50.024;8.172;2023-02-04T16:46:55;9.50;99.90
15815;DHT22;8008;50.024;8.172;2023-02-04T16:49:23;9.50;99.90
15815;DHT22;8008;50.024;8.172;2023-02-04T16:51:51;9.40;99.90
15815;DHT22;8008;50.024;8.172;2023-02-04T16:54:19;9.40;99.90
15815;DHT22;8008;50.024;8.172;2023-02-04T16:56:48;9.40;99.90
15815;DHT22;8008;50.024;8.172;2023-02-04T16:59:16;9.40;99.90
15815;DHT22;8008;50.024;8.172;2023-02-04T17:01:44;9.30;99.90
15815;DHT22;8008;50.024;8.172;2023-02-04T17:04:13;9.30;99.90
15815;DHT22;8008;50.024;8.172;2023-02-04T17:06:41;9.30;99.90
15815;DHT22;8008;50.024;8.172;2023-02-04T17:09:09;9.30;99.90
15815;DHT22;8008;50.024;8.172;2023-02-04T17:11:36;9.30;99.90
15815;DHT22;8008;50.024;8.172;2023-02-04T17:14:07;9.20;99.90
15815;DHT22;8008;50.024;8.172;2023-02-04T17:16:36;9.20;99.90
15815;DHT22;8008;50.024;8.172;2023-02-04T17:19:04;9.20;99.90
15815;DHT22;8008;50.024;8.172;2023-02-04T17:21:32;9.20;99.90
15815;DHT22;8008;50.024;8.172;2023-02-04T17:24:00;9.10;99.90
15815;DHT22;8008;50.024;8.172;2023-02-04T17:26:30;9.20;99.90
15815;DHT22;8008;50.024;8.172;2023-02-04T17:29:03;9.10;99.90
15815;DHT22;8008;50.024;8.172;2023-02-04T17:31:33;9.10;99.90
15815;DHT22;8008;50.024;8.172;2023-02-04T17:34:01;9.10;99.90
15815;DHT22;8008;50.024;8.172;2023-02-04T17:36:30;9.00;99.90
15815;DHT22;8008;50.024;8.172;2023-02-04T17:38:58;9.00;99.90
15815;DHT22;8008;50.024;8.172;2023-02-04T17:41:26;8.90;99.90
15815;DHT22;8008;50.024;8.172;2023-02-04T17:43:54;9.00;99.90
15815;DHT22;8008;50.024;8.172;2023-02-04T17:46:22;9.00;99.90
15815;DHT22;8008;50.024;8.172;2023-02-04T17:48:51;9.00;99.90
15815;DHT22;8008;50.024;8.172;2023-02-04T17:51:19;9.00;99.90
15815;DHT22;8008;50.024;8.172;2023-02-04T17:53:47;8.90;99.90
15815;DHT22;8008;50.024;8.172;2023-02-04T17:56:14;8.90;99.90
15815;DHT22;8008;50.024;8.172;2023-02-04T17:58:42;8.90;99.90
15815;DHT22;8008;50.024;8.172;2023-02-04T18:01:14;8.80;99.90
15815;DHT22;8008;50.024;8.172;2023-02-04T18:03:42;8.90;99.90
15815;DHT22;8008;50.024;8.172;2023-02-04T18:06:18;8.80;99.90
15815;DHT22;8008;50.024;8.172;2023-02-04T18:08:47;8.80;99.90
15815;DHT22;8008;50.024;8.172;2023-02-04T18:11:18;8.80;99.90
15815;DHT22;8008;50.024;8.172;2023-02-04T18:13:46;8.80;99.90
15815;DHT22;8008;50.024;8.172;2023-02-04T18:16:23;8.80;99.90
15815;DHT22;8008;50.024;8.172;2023-02-04T18:18:54;8.70;99.90
15815;DHT22;8008;50.024;8.172;2023-02-04T18:21:25;8.70;99.90
15815;DHT22;8008;50.024;8.172;2023-02-04T18:24:01;8.60;99.90
15815;DHT22;8008;50.024;8.172;2023-02-04T18:26:32;8.70;99.90
15815;DHT22;8008;50.024;8.172;2023-02-04T18:29:11;8.70;99.90
15815;DHT22;8008;50.024;8.172;2023-02-04T18:31:49;8.70;99.90
15815;DHT22;8008;50.024;8.172;2023-02-04T18:34:25;8.70;99.90
15815;DHT22;8008;50.024;8.172;2023-02-04T18:36:55;8.60;99.90
15815;DHT22;8008;50.024;8.172;2023-02-04T18:39:26;8.60;99.90
15815;DHT22;8008;50.024;8.172;2023-02-04T18:41:55;8.60;99.90
15815;DHT22;8008;50.024;8.172;2023-02-04T18:44:28;8.60;99.90
15815;DHT22;8008;50.024;8.172;2023-02-04T18:46:58;8.60;99.90
15815;DHT22;8008;50.024;8.172;2023-02-04T18:49:31;8.60;99.90
15815;DHT22;8008;50.024;8.172;2023-02-04T18:52:13;8.60;99.90
15815;DHT22;8008;50.024;8.172;2023-02-04T18:54:43;8.50;99.90
15815;DHT22;8008;50.024;8.172;2023-02-04T18:57:23;8.40;99.90
15815;DHT22;8008;50.024;8.172;2023-02-04T19:03:13;8.40;99.90
15815;DHT22;8008;50.024;8.172;2023-02-04T19:05:47;8.30;99.90
15815;DHT22;8008;50.024;8.172;2023-02-04T19:08:27;8.30;99.90
15815;DHT22;8008;50.024;8.172;2023-02-04T19:10:56;8.30;99.90
15815;DHT22;8008;50.024;8.172;2023-02-04T19:13:26;8.30;99.90
15815;DHT22;8008;50.024;8.172;2023-02-04T19:16:05;8.30;99.90
15815;DHT22;8008;50.024;8.172;2023-02-04T19:18:39;8.20;99.90
15815;DHT22;8008;50.024;8.172;2023-02-04T19:21:22;8.20;99.90
15815;DHT22;8008;50.024;8.172;2023-02-04T19:23:58;8.20;99.90
15815;DHT22;8008;50.024;8.172;2023-02-04T19:26:32;8.20;99.90
15815;DHT22;8008;50.024;8.172;2023-02-04T19:29:02;8.20;99.90
15815;DHT22;8008;50.024;8.172;2023-02-04T19:31:51;8.30;99.90
15815;DHT22;8008;50.024;8.172;2023-02-04T19:34:23;8.30;99.90
15815;DHT22;8008;50.024;8.172;2023-02-04T19:36:52;8.30;99.90
15815;DHT22;8008;50.024;8.172;2023-02-04T19:39:28;8.30;99.90
15815;DHT22;8008;50.024;8.172;2023-02-04T19:42:01;8.30;99.90
15815;DHT22;8008;50.024;8.172;2023-02-04T19:44:43;8.30;99.90
15815;DHT22;8008;50.024;8.172;2023-02-04T19:47:22;8.30;99.90
15815;DHT22;8008;50.024;8.172;2023-02-04T19:49:50;8.20;99.90
15815;DHT22;8008;50.024;8.172;2023-02-04T19:52:28;8.10;99.90
15815;DHT22;8008;50.024;8.172;2023-02-04T19:55:26;8.10;99.90
15815;DHT22;8008;50.024;8.172;2023-02-04T19:57:57;8.10;99.90
15815;DHT22;8008;50.024;8.172;2023-02-04T20:00:43;8.00;99.90
15815;DHT22;8008;50.024;8.172;2023-02-04T20:03:27;7.90;99.90
15815;DHT22;8008;50.024;8.172;2023-02-04T20:05:59;7.80;99.90
15815;DHT22;8008;50.024;8.172;2023-02-04T20:08:44;7.80;99.90
15815;DHT22;8008;50.024;8.172;2023-02-04T20:11:39;7.60;99.90
15815;DHT22;8008;50.024;8.172;2023-02-04T20:14:24;7.60;99.90
15815;DHT22;8008;50.024;8.172;2023-02-04T20:16:54;7.50;99.90
15815;DHT22;8008;50.024;8.172;2023-02-04T20:19:27;7.50;99.90